sensor_id;sensor_type;location;lat;lon;timestamp;pressure;altitude;pressure_sealevel;temperature;humidity
26436;BME280;15351;52.408;16.826;2022-12-24T00:00:59;99743.86;;;8.69;81.67
26436;BME280;15351;52.408;16.826;2022-12-24T00:03:26;99742.33;;;8.70;81.73
26436;BME280;15351;52.408;16.826;2022-12-24T00:05:53;99746.22;;;8.68;81.49
26436;BME280;15351;52.408;16.826;2022-12-24T00:08:22;99745.75;;;8.64;81.57
26436;BME280;15351;52.408;16.826;2022-12-24T00:10:50;99750.63;;;8.65;81.63
26436;BME280;15351;52.408;16.826;2022-12-24T00:13:19;99752.15;;;8.63;81.71
26436;BME280;15351;52.408;16.826;2022-12-24T00:15:48;99751.50;;;8.61;81.65
26436;BME280;15351;52.408;16.826;2022-12-24T00:18:15;99750.66;;;8.61;81.54
26436;BME280;15351;52.408;16.826;2022-12-24T00:20:49;99747.47;;;8.58;81.63
26436;BME280;15351;52.408;16.826;2022-12-24T00:23:17;99752.19;;;8.56;81.81
26436;BME280;15351;52.408;16.826;2022-12-24T00:25:45;99758.55;;;8.62;81.99
26436;BME280;15351;52.408;16.826;2022-12-24T00:28:12;99752.25;;;8.70;81.71
26436;BME280;15351;52.408;16.826;2022-12-24T00:30:41;99748.03;;;8.71;81.61
26436;BME280;15351;52.408;16.826;2022-12-24T00:33:09;99747.52;;;8.72;81.58
26436;BME280;15351;52.408;16.826;2022-12-24T00:35:37;99751.05;;;8.72;81.60
26436;BME280;15351;52.408;16.826;2022-12-24T00:38:04;99749.56;;;8.70;81.38
26436;BME280;15351;52.408;16.826;2022-12-24T00:40:32;99752.11;;;8.67;81.34
26436;BME280;15351;52.408;16.826;2022-12-24T00:42:59;99745.89;;;8.67;81.46
26436;BME280;15351;52.408;16.826;2022-12-24T00:45:26;99740.48;;;8.71;81.56
26436;BME280;15351;52.408;16.826;2022-12-24T00:47:53;99738.44;;;8.77;81.56
26436;BME280;15351;52.408;16.826;2022-12-24T00:50:21;99732.17;;;8.80;81.24
26436;BME280;15351;52.408;16.826;2022-12-24T00:52:48;99737.88;;;8.81;81.02
26436;BME280;15351;52.408;16.826;2022-12-24T00:55:15;99742.29;;;8.74;81.03
26436;BME280;15351;52.408;16.826;2022-12-24T00:57:43;99746.65;;;8.75;81.25
26436;BME280;15351;52.408;16.826;2022-12-24T01:00:10;99743.63;;;8.78;81.25
26436;BME280;15351;52.408;16.826;2022-12-24T01:02:37;99740.43;;;8.79;81.01
26436;BME280;15351;52.408;16.826;2022-12-24T01:05:04;99735.88;;;8.79;80.95
26436;BME280;15351;52.408;16.826;2022-12-24T01:07:41;99739.59;;;8.78;80.93
26436;BME280;15351;52.408;16.826;2022-12-24T01:10:16;99739.05;;;8.82;81.04
26436;BME280;15351;52.408;16.826;2022-12-24T01:12:46;99742.56;;;8.83;80.74
26436;BME280;15351;52.408;16.826;2022-12-24T01:15:14;99735.74;;;8.77;80.62
26436;BME280;15351;52.408;16.826;2022-12-24T01:17:42;99738.25;;;8.74;80.75
26436;BME280;15351;52.408;16.826;2022-12-24T01:20:13;99737.09;;;8.73;80.85
26436;BME280;15351;52.408;16.826;2022-12-24T01:22:40;99738.25;;;8.74;80.89
26436;BME280;15351;52.408;16.826;2022-12-24T01:25:07;99732.55;;;8.77;80.66
26436;BME280;15351;52.408;16.826;2022-12-24T01:27:38;99739.93;;;8.75;80.62
26436;BME280;15351;52.408;16.826;2022-12-24T01:30:07;99736.95;;;8.70;80.67
26436;BME280;15351;52.408;16.826;2022-12-24T01:32:35;99733.29;;;8.67;80.97
26436;BME280;15351;52.408;16.826;2022-12-24T01:35:03;99733.58;;;8.72;80.81
26436;BME280;15351;52.408;16.826;2022-12-24T01:37:32;99735.94;;;8.71;80.77
26436;BME280;15351;52.408;16.826;2022-12-24T01:39:58;99730.59;;;8.67;80.70
26436;BME280;15351;52.408;16.826;2022-12-24T01:42:47;99730.27;;;8.66;80.90
26436;BME280;15351;52.408;16.826;2022-12-24T01:45:42;99727.22;;;8.69;81.02
26436;BME280;15351;52.408;16.826;2022-12-24T01:48:27;99730.05;;;8.72;80.93
26436;BME280;15351;52.408;16.826;2022-12-24T01:53:44;99736.59;;;8.73;80.94
26436;BME280;15351;52.408;16.826;2022-12-24T01:56:14;99737.42;;;8.74;81.06
26436;BME280;15351;52.408;16.826;2022-12-24T01:58:45;99734.55;;;8.75;80.94
26436;BME280;15351;52.408;16.826;2022-12-24T02:01:14;99730.59;;;8.67;80.80
26436;BME280;15351;52.408;16.826;2022-12-24T02:03:40;99727.08;;;8.67;81.03
26436;BME280;15351;52.408;16.826;2022-12-24T02:06:07;99733.00;;;8.62;81.04
26436;BME280;15351;52.408;16.826;2022-12-24T02:08:34;99733.80;;;8.67;81.32
26436;BME280;15351;52.408;16.826;2022-12-24T02:11:13;99729.58;;;8.68;81.19
26436;BME280;15351;52.408;16.826;2022-12-24T02:13:51;99736.20;;;8.62;81.09
26436;BME280;15351;52.408;16.826;2022-12-24T02:16:28;99728.66;;;8.58;81.15
26436;BME280;15351;52.408;16.826;2022-12-24T02:37:08;99730.36;;;8.55;81.32
26436;BME280;15351;52.408;16.826;2022-12-24T02:39:48;99732.40;;;8.53;81.36
26436;BME280;15351;52.408;16.826;2022-12-24T02:42:26;99735.48;;;8.46;81.39
26436;BME280;15351;52.408;16.826;2022-12-24T02:45:04;99735.48;;;8.46;81.64
26436;BME280;15351;52.408;16.826;2022-12-24T02:47:50;99746.38;;;8.48;81.57
26436;BME280;15351;52.408;16.826;2022-12-24T02:50:18;99741.80;;;8.53;81.49
26436;BME280;15351;52.408;16.826;2022-12-24T02:52:46;99748.20;;;8.52;81.39
26436;BME280;15351;52.408;16.826;2022-12-24T03:06:43;99753.10;;;8.44;81.28
26436;BME280;15351;52.408;16.826;2022-12-24T03:09:30;99758.84;;;8.45;81.54
26436;BME280;15351;52.408;16.826;2022-12-24T03:12:14;99752.92;;;8.50;81.44
26436;BME280;15351;52.408;16.826;2022-12-24T03:14:39;99757.79;;;8.50;81.34
26436;BME280;15351;52.408;16.826;2022-12-24T03:17:07;99761.67;;;8.48;81.38
26436;BME280;15351;52.408;16.826;2022-12-24T03:19:35;99763.02;;;8.48;81.29
26436;BME280;15351;52.408;16.826;2022-12-24T03:22:06;99761.67;;;8.44;81.21
26436;BME280;15351;52.408;16.826;2022-12-24T03:24:35;99754.63;;;8.47;81.14
26436;BME280;15351;52.408;16.826;2022-12-24T03:27:03;99758.98;;;8.44;81.16
26436;BME280;15351;52.408;16.826;2022-12-24T03:29:33;99758.37;;;8.38;81.21
26436;BME280;15351;52.408;16.826;2022-12-24T03:32:02;99762.44;;;8.34;81.38
26436;BME280;15351;52.408;16.826;2022-12-24T03:34:31;99762.25;;;8.36;81.40
26436;BME280;15351;52.408;16.826;2022-12-24T03:36:58;99762.25;;;8.36;81.35
26436;BME280;15351;52.408;16.826;2022-12-24T03:39:24;99764.47;;;8.32;81.30
26436;BME280;15351;52.408;16.826;2022-12-24T03:41:51;99764.64;;;8.27;81.31
26436;BME280;15351;52.408;16.826;2022-12-24T03:44:18;99770.85;;;8.27;81.61
26436;BME280;15351;52.408;16.826;2022-12-24T03:46:46;99775.57;;;8.25;81.43
26436;BME280;15351;52.408;16.826;2022-12-24T03:49:13;99772.08;;;8.21;81.25
26436;BME280;15351;52.408;16.826;2022-12-24T03:51:40;99777.31;;;8.18;81.48
26436;BME280;15351;52.408;16.826;2022-12-24T03:54:07;99781.66;;;8.19;81.64
26436;BME280;15351;52.408;16.826;2022-12-24T03:56:33;99782.98;;;8.23;81.63
26436;BME280;15351;52.408;16.826;2022-12-24T03:59:00;99789.00;;;8.25;81.38
26436;BME280;15351;52.408;16.826;2022-12-24T04:01:28;99787.99;;;8.26;81.32
26436;BME280;15351;52.408;16.826;2022-12-24T04:03:55;99793.55;;;8.25;81.36
26436;BME280;15351;52.408;16.826;2022-12-24T04:06:23;99799.39;;;8.28;81.41
26436;BME280;15351;52.408;16.826;2022-12-24T04:08:49;99802.59;;;8.32;81.22
26436;BME280;15351;52.408;16.826;2022-12-24T04:11:17;99796.70;;;8.28;80.97
26436;BME280;15351;52.408;16.826;2022-12-24T04:13:44;99792.05;;;8.22;81.06
26436;BME280;15351;52.408;16.826;2022-12-24T04:16:14;99795.60;;;8.19;81.14
26436;BME280;15351;52.408;16.826;2022-12-24T04:18:43;99795.93;;;8.20;81.45
26436;BME280;15351;52.408;16.826;2022-12-24T04:21:10;99800.26;;;8.25;81.20
26436;BME280;15351;52.408;16.826;2022-12-24T04:23:39;99795.39;;;8.24;81.09
26436;BME280;15351;52.408;16.826;2022-12-24T04:26:08;99805.30;;;8.24;81.21
26436;BME280;15351;52.408;16.826;2022-12-24T04:28:37;99801.48;;;8.18;81.00
26436;BME280;15351;52.408;16.826;2022-12-24T04:31:10;99807.88;;;8.17;81.29
26436;BME280;15351;52.408;16.826;2022-12-24T04:33:39;99803.66;;;8.19;81.23
26436;BME280;15351;52.408;16.826;2022-12-24T04:36:09;99804.98;;;8.23;81.16
26436;BME280;15351;52.408;16.826;2022-12-24T04:38:40;99809.33;;;8.24;81.18
26436;BME280;15351;52.408;16.826;2022-12-24T04:41:12;99806.14;;;8.24;81.29
26436;BME280;15351;52.408;16.826;2022-12-24T04:43:40;99817.72;;;8.25;81.11
26436;BME280;15351;52.408;16.826;2022-12-24T04:46:12;99811.84;;;8.25;81.01
26436;BME280;15351;52.408;16.826;2022-12-24T04:48:47;99820.73;;;8.26;81.01
26436;BME280;15351;52.408;16.826;2022-12-24T04:51:18;99817.55;;;8.26;80.94
26436;BME280;15351;52.408;16.826;2022-12-24T04:53:46;99814.38;;;8.23;81.12
26436;BME280;15351;52.408;16.826;2022-12-24T04:56:15;99815.52;;;8.28;81.04
26436;BME280;15351;52.408;16.826;2022-12-24T04:58:43;99817.06;;;8.23;80.74
26436;BME280;15351;52.408;16.826;2022-12-24T05:01:23;99824.97;;;8.20;80.89
26436;BME280;15351;52.408;16.826;2022-12-24T05:03:49;99829.36;;;8.17;80.85
26436;BME280;15351;52.408;16.826;2022-12-24T05:06:21;99832.41;;;8.15;81.12
26436;BME280;15351;52.408;16.826;2022-12-24T05:08:56;99831.39;;;8.16;81.03
26436;BME280;15351;52.408;16.826;2022-12-24T05:11:25;99833.89;;;8.17;80.78
26436;BME280;15351;52.408;16.826;2022-12-24T05:13:51;99842.81;;;8.14;80.88
26436;BME280;15351;52.408;16.826;2022-12-24T05:16:20;99839.77;;;8.13;80.95
26436;BME280;15351;52.408;16.826;2022-12-24T05:18:47;99841.45;;;8.17;81.02
26436;BME280;15351;52.408;16.826;2022-12-24T05:21:17;99843.80;;;8.13;80.81
26436;BME280;15351;52.408;16.826;2022-12-24T05:23:47;99841.11;;;8.13;80.87
26436;BME280;15351;52.408;16.826;2022-12-24T05:29:08;99846.50;;;8.09;80.94
26436;BME280;15351;52.408;16.826;2022-12-24T05:31:37;99850.03;;;8.09;81.04
26436;BME280;15351;52.408;16.826;2022-12-24T05:34:06;99845.83;;;8.11;81.07
26436;BME280;15351;52.408;16.826;2022-12-24T05:36:37;99849.36;;;8.15;80.98
26436;BME280;15351;52.408;16.826;2022-12-24T05:39:04;99859.59;;;8.16;80.72
26436;BME280;15351;52.408;16.826;2022-12-24T05:41:31;99867.31;;;8.15;80.84
26436;BME280;15351;52.408;16.826;2022-12-24T05:43:58;99874.02;;;8.11;80.85
26436;BME280;15351;52.408;16.826;2022-12-24T05:46:25;99877.55;;;8.11;80.96
26436;BME280;15351;52.408;16.826;2022-12-24T05:48:52;99871.67;;;8.12;80.80
26436;BME280;15351;52.408;16.826;2022-12-24T05:51:20;99876.89;;;8.09;80.68
26436;BME280;15351;52.408;16.826;2022-12-24T05:53:49;99877.72;;;8.10;80.82
26436;BME280;15351;52.408;16.826;2022-12-24T05:56:22;99886.62;;;8.10;80.70
26436;BME280;15351;52.408;16.826;2022-12-24T05:58:47;99883.95;;;8.06;80.74
26436;BME280;15351;52.408;16.826;2022-12-24T06:01:14;99898.22;;;8.07;80.72
26436;BME280;15351;52.408;16.826;2022-12-24T06:03:41;99900.58;;;8.06;80.54
26436;BME280;15351;52.408;16.826;2022-12-24T06:06:11;99900.92;;;8.03;80.62
26436;BME280;15351;52.408;16.826;2022-12-24T06:08:39;99903.09;;;7.99;80.64
26436;BME280;15351;52.408;16.826;2022-12-24T06:11:09;99907.30;;;8.02;80.83
26436;BME280;15351;52.408;16.826;2022-12-24T06:13:37;99907.95;;;8.08;80.82
26436;BME280;15351;52.408;16.826;2022-12-24T06:16:09;99908.94;;;8.11;80.51
26436;BME280;15351;52.408;16.826;2022-12-24T06:18:37;99914.97;;;8.13;80.53
26436;BME280;15351;52.408;16.826;2022-12-24T06:21:06;99914.16;;;8.08;80.34
26436;BME280;15351;52.408;16.826;2022-12-24T06:23:34;99922.22;;;8.08;80.43
26436;BME280;15351;52.408;16.826;2022-12-24T06:26:05;99925.05;;;8.11;80.27
26436;BME280;15351;52.408;16.826;2022-12-24T06:28:35;99924.23;;;8.06;80.05
26436;BME280;15351;52.408;16.826;2022-12-24T06:31:03;99932.80;;;7.98;80.08
26436;BME280;15351;52.408;16.826;2022-12-24T06:33:32;99935.13;;;7.97;80.21
26436;BME280;15351;52.408;16.826;2022-12-24T06:35:59;99935.48;;;7.98;80.30
26436;BME280;15351;52.408;16.826;2022-12-24T06:38:26;99940.50;;;7.97;80.21
26436;BME280;15351;52.408;16.826;2022-12-24T06:40:56;99938.17;;;7.98;80.02
26436;BME280;15351;52.408;16.826;2022-12-24T06:43:23;99942.02;;;7.95;80.03
26436;BME280;15351;52.408;16.826;2022-12-24T06:45:50;99946.89;;;7.92;80.10
26436;BME280;15351;52.408;16.826;2022-12-24T06:48:17;99958.31;;;7.90;80.17
26436;BME280;15351;52.408;16.826;2022-12-24T06:50:44;99962.01;;;7.89;80.14
26436;BME280;15351;52.408;16.826;2022-12-24T06:53:11;99963.52;;;7.88;80.05
26436;BME280;15351;52.408;16.826;2022-12-24T06:55:38;99973.76;;;7.88;80.03
26436;BME280;15351;52.408;16.826;2022-12-24T06:58:05;99974.78;;;7.83;80.03
26436;BME280;15351;52.408;16.826;2022-12-24T07:00:32;99983.17;;;7.84;80.20
26436;BME280;15351;52.408;16.826;2022-12-24T07:02:59;99992.55;;;7.88;80.13
26436;BME280;15351;52.408;16.826;2022-12-24T07:05:28;99998.59;;;7.86;79.90
26436;BME280;15351;52.408;16.826;2022-12-24T07:07:55;100005.98;;;7.84;80.05
26436;BME280;15351;52.408;16.826;2022-12-24T07:10:22;100011.03;;;7.83;80.12
26436;BME280;15351;52.408;16.826;2022-12-24T07:12:50;100009.17;;;7.84;80.19
26436;BME280;15351;52.408;16.826;2022-12-24T07:15:18;100017.39;;;7.86;80.02
26436;BME280;15351;52.408;16.826;2022-12-24T07:17:45;100022.09;;;7.84;79.85
26436;BME280;15351;52.408;16.826;2022-12-24T07:20:13;100024.95;;;7.83;79.84
26436;BME280;15351;52.408;16.826;2022-12-24T07:22:41;100019.73;;;7.77;80.04
26436;BME280;15351;52.408;16.826;2022-12-24T07:25:09;100032.98;;;7.79;80.12
26436;BME280;15351;52.408;16.826;2022-12-24T07:27:36;100037.37;;;7.84;80.05
26436;BME280;15351;52.408;16.826;2022-12-24T07:30:04;100040.22;;;7.82;79.83
26436;BME280;15351;52.408;16.826;2022-12-24T07:32:32;100043.08;;;7.85;80.01
26436;BME280;15351;52.408;16.826;2022-12-24T07:34:58;100044.92;;;7.84;79.99
26436;BME280;15351;52.408;16.826;2022-12-24T07:37:25;100049.12;;;7.83;79.96
26436;BME280;15351;52.408;16.826;2022-12-24T07:39:52;100044.24;;;7.86;79.93
26436;BME280;15351;52.408;16.826;2022-12-24T07:42:19;100054.31;;;7.88;79.78
26436;BME280;15351;52.408;16.826;2022-12-24T07:44:49;100054.14;;;7.86;79.80
26436;BME280;15351;52.408;16.826;2022-12-24T07:47:17;100057.17;;;7.83;79.87
26436;BME280;15351;52.408;16.826;2022-12-24T07:49:44;100061.70;;;7.86;79.95
26436;BME280;15351;52.408;16.826;2022-12-24T07:52:11;100067.23;;;7.89;79.74
26436;BME280;15351;52.408;16.826;2022-12-24T07:54:40;100062.38;;;7.84;79.77
26436;BME280;15351;52.408;16.826;2022-12-24T07:57:08;100073.78;;;7.86;79.94
26436;BME280;15351;52.408;16.826;2022-12-24T07:59:35;100074.28;;;7.86;79.93
26436;BME280;15351;52.408;16.826;2022-12-24T08:02:01;100087.55;;;7.83;80.00
26436;BME280;15351;52.408;16.826;2022-12-24T08:04:30;100096.09;;;7.87;79.86
26436;BME280;15351;52.408;16.826;2022-12-24T08:07:04;100096.42;;;7.92;79.85
26436;BME280;15351;52.408;16.826;2022-12-24T08:09:34;100099.45;;;7.93;79.90
26436;BME280;15351;52.408;16.826;2022-12-24T08:12:02;100102.13;;;7.89;79.84
26436;BME280;15351;52.408;16.826;2022-12-24T08:14:30;100105.33;;;7.88;79.86
26436;BME280;15351;52.408;16.826;2022-12-24T08:16:57;100107.16;;;7.92;79.77
26436;BME280;15351;52.408;16.826;2022-12-24T08:19:24;100109.34;;;7.92;79.94
26436;BME280;15351;52.408;16.826;2022-12-24T08:21:51;100114.05;;;7.94;79.92
26436;BME280;15351;52.408;16.826;2022-12-24T08:24:18;100116.22;;;7.94;80.00
26436;BME280;15351;52.408;16.826;2022-12-24T08:26:44;100122.77;;;7.96;79.95
26436;BME280;15351;52.408;16.826;2022-12-24T08:29:11;100119.78;;;7.99;79.66
26436;BME280;15351;52.408;16.826;2022-12-24T08:31:40;100123.81;;;7.99;79.73
26436;BME280;15351;52.408;16.826;2022-12-24T08:34:07;100123.94;;;7.97;79.81
26436;BME280;15351;52.408;16.826;2022-12-24T08:36:36;100124.98;;;8.00;79.92
26436;BME280;15351;52.408;16.826;2022-12-24T08:39:03;100138.27;;;8.02;79.81
26436;BME280;15351;52.408;16.826;2022-12-24T08:41:30;100142.77;;;8.01;79.69
26436;BME280;15351;52.408;16.826;2022-12-24T08:43:59;100141.59;;;8.00;79.73
26436;BME280;15351;52.408;16.826;2022-12-24T08:46:26;100153.38;;;8.03;79.93
26436;BME280;15351;52.408;16.826;2022-12-24T08:48:54;100149.01;;;8.06;79.78
26436;BME280;15351;52.408;16.826;2022-12-24T08:51:23;100154.72;;;8.03;79.58
26436;BME280;15351;52.408;16.826;2022-12-24T08:53:50;100152.67;;;8.01;79.52
26436;BME280;15351;52.408;16.826;2022-12-24T08:56:16;100166.80;;;8.03;79.69
26436;BME280;15351;52.408;16.826;2022-12-24T08:58:50;100158.41;;;8.06;79.78
26436;BME280;15351;52.408;16.826;2022-12-24T09:01:18;100162.77;;;8.11;79.68
26436;BME280;15351;52.408;16.826;2022-12-24T09:03:47;100168.81;;;8.13;79.46
26436;BME280;15351;52.408;16.826;2022-12-24T09:06:14;100165.45;;;8.11;79.35
26436;BME280;15351;52.408;16.826;2022-12-24T09:08:41;100167.30;;;8.10;79.39
26436;BME280;15351;52.408;16.826;2022-12-24T09:11:16;100173.34;;;8.12;79.54
26436;BME280;15351;52.408;16.826;2022-12-24T09:13:41;100165.79;;;8.12;79.49
26436;BME280;15351;52.408;16.826;2022-12-24T09:16:10;100171.50;;;8.09;79.32
26436;BME280;15351;52.408;16.826;2022-12-24T09:18:37;100174.19;;;8.09;79.31
26436;BME280;15351;52.408;16.826;2022-12-24T09:21:12;100178.55;;;8.06;79.30
26436;BME280;15351;52.408;16.826;2022-12-24T09:23:42;100178.22;;;8.09;79.46
26436;BME280;15351;52.408;16.826;2022-12-24T09:28:44;100184.09;;;8.08;79.36
26436;BME280;15351;52.408;16.826;2022-12-24T09:31:13;100187.12;;;8.05;79.27
26436;BME280;15351;52.408;16.826;2022-12-24T09:33:43;100191.28;;;8.00;79.35
26436;BME280;15351;52.408;16.826;2022-12-24T09:36:11;100199.34;;;8.00;79.54
26436;BME280;15351;52.408;16.826;2022-12-24T09:38:41;100200.38;;;8.03;79.66
26436;BME280;15351;52.408;16.826;2022-12-24T09:41:16;100208.94;;;8.02;79.60
26436;BME280;15351;52.408;16.826;2022-12-24T09:44:07;100214.14;;;8.04;79.60
26436;BME280;15351;52.408;16.826;2022-12-24T09:46:40;100213.47;;;8.02;79.66
26436;BME280;15351;52.408;16.826;2022-12-24T09:49:14;100215.79;;;8.01;79.89
26436;BME280;15351;52.408;16.826;2022-12-24T09:51:57;100219.84;;;8.09;80.01
26436;BME280;15351;52.408;16.826;2022-12-24T09:54:34;100212.46;;;8.11;79.68
26436;BME280;15351;52.408;16.826;2022-12-24T09:57:26;100223.05;;;8.12;79.74
26436;BME280;15351;52.408;16.826;2022-12-24T09:59:45;100223.08;;;8.16;79.82
26436;BME280;15351;52.408;16.826;2022-12-24T10:02:17;100224.25;;;8.17;79.90
26436;BME280;15351;52.408;16.826;2022-12-24T10:04:53;100230.97;;;8.17;79.71
26436;BME280;15351;52.408;16.826;2022-12-24T10:07:44;100238.69;;;8.16;79.73
26436;BME280;15351;52.408;16.826;2022-12-24T10:10:36;100235.50;;;8.21;79.86
26436;BME280;15351;52.408;16.826;2022-12-24T10:13:22;100250.11;;;8.22;79.92
26436;BME280;15351;52.408;16.826;2022-12-24T10:19:19;100262.36;;;8.29;79.53
26436;BME280;15351;52.408;16.826;2022-12-24T10:24:59;100260.85;;;8.22;79.77
26436;BME280;15351;52.408;16.826;2022-12-24T10:27:34;100268.91;;;8.26;79.85
26436;BME280;15351;52.408;16.826;2022-12-24T10:30:11;100270.45;;;8.33;79.56
26436;BME280;15351;52.408;16.826;2022-12-24T10:32:36;100270.63;;;8.31;79.59
26436;BME280;15351;52.408;16.826;2022-12-24T10:35:07;100266.26;;;8.30;79.69
26436;BME280;15351;52.408;16.826;2022-12-24T10:37:40;100271.80;;;8.33;79.62
26436;BME280;15351;52.408;16.826;2022-12-24T10:43:14;100277.98;;;8.25;79.54
26436;BME280;15351;52.408;16.826;2022-12-24T10:46:02;100279.83;;;8.25;79.87
26436;BME280;15351;52.408;16.826;2022-12-24T10:49:01;100278.98;;;8.28;80.01
26436;BME280;15351;52.408;16.826;2022-12-24T10:51:58;100288.42;;;8.36;80.12
26436;BME280;15351;52.408;16.826;2022-12-24T10:54:27;100293.80;;;8.44;79.89
26436;BME280;15351;52.408;16.826;2022-12-24T10:57:01;100290.44;;;8.38;79.73
26436;BME280;15351;52.408;16.826;2022-12-24T11:05:34;100299.55;;;8.45;79.51
26436;BME280;15351;52.408;16.826;2022-12-24T11:08:23;100297.49;;;8.39;79.53
26436;BME280;15351;52.408;16.826;2022-12-24T11:11:06;100304.72;;;8.38;79.79
26436;BME280;15351;52.408;16.826;2022-12-24T11:13:44;100300.89;;;8.45;79.87
26436;BME280;15351;52.408;16.826;2022-12-24T11:16:31;100303.91;;;8.50;79.79
26436;BME280;15351;52.408;16.826;2022-12-24T11:19:04;100313.66;;;8.55;79.93
26436;BME280;15351;52.408;16.826;2022-12-24T11:21:39;100308.27;;;8.59;79.94
26436;BME280;15351;52.408;16.826;2022-12-24T11:24:32;100312.64;;;8.59;79.87
26436;BME280;15351;52.408;16.826;2022-12-24T11:27:27;100319.03;;;8.59;79.59
26436;BME280;15351;52.408;16.826;2022-12-24T11:30:24;100321.21;;;8.55;79.57
26436;BME280;15351;52.408;16.826;2022-12-24T11:35:33;100327.09;;;8.47;79.87
26436;BME280;15351;52.408;16.826;2022-12-24T11:38:10;100322.86;;;8.44;79.60
26436;BME280;15351;52.408;16.826;2022-12-24T11:40:41;100331.80;;;8.45;79.80
26436;BME280;15351;52.408;16.826;2022-12-24T11:43:20;100331.45;;;8.48;79.92
26436;BME280;15351;52.408;16.826;2022-12-24T11:45:56;100328.94;;;8.54;79.86
26436;BME280;15351;52.408;16.826;2022-12-24T11:48:29;100335.33;;;8.57;79.67
26436;BME280;15351;52.408;16.826;2022-12-24T11:51:19;100335.86;;;8.60;79.46
26436;BME280;15351;52.408;16.826;2022-12-24T11:54:18;100342.58;;;8.60;79.39
26436;BME280;15351;52.408;16.826;2022-12-24T11:57:06;100349.94;;;8.59;79.50
26436;BME280;15351;52.408;16.826;2022-12-24T11:59:49;100347.59;;;8.59;79.31
26436;BME280;15351;52.408;16.826;2022-12-24T12:02:42;100351.45;;;8.57;79.30
26436;BME280;15351;52.408;16.826;2022-12-24T12:05:21;100355.66;;;8.59;79.41
26436;BME280;15351;52.408;16.826;2022-12-24T12:08:17;100351.99;;;8.60;79.43
26436;BME280;15351;52.408;16.826;2022-12-24T12:10:54;100366.41;;;8.59;79.35
26436;BME280;15351;52.408;16.826;2022-12-24T12:13:28;100367.25;;;8.56;79.22
26436;BME280;15351;52.408;16.826;2022-12-24T12:16:25;100372.45;;;8.54;79.47
26436;BME280;15351;52.408;16.826;2022-12-24T12:19:02;100369.60;;;8.55;79.56
26436;BME280;15351;52.408;16.826;2022-12-24T12:21:34;100366.41;;;8.59;79.40
26436;BME280;15351;52.408;16.826;2022-12-24T12:24:27;100366.41;;;8.59;79.25
26436;BME280;15351;52.408;16.826;2022-12-24T12:30:06;100382.03;;;8.56;79.42
26436;BME280;15351;52.408;16.826;2022-12-24T12:35:40;100382.20;;;8.59;79.40
26436;BME280;15351;52.408;16.826;2022-12-24T12:38:07;100374.84;;;8.60;79.41
26436;BME280;15351;52.408;16.826;2022-12-24T12:40:51;100380.19;;;8.57;79.18
26436;BME280;15351;52.408;16.826;2022-12-24T12:56:34;100402.86;;;8.50;79.72
26436;BME280;15351;52.408;16.826;2022-12-24T12:59:33;100409.08;;;8.51;79.30
26436;BME280;15351;52.408;16.826;2022-12-24T13:06:45;100419.61;;;8.40;79.52
26436;BME280;15351;52.408;16.826;2022-12-24T13:15:42;100430.36;;;8.37;79.74
26436;BME280;15351;52.408;16.826;2022-12-24T13:20:55;100437.08;;;8.40;79.88
26436;BME280;15351;52.408;16.826;2022-12-24T13:23:24;100442.51;;;8.48;79.72
26436;BME280;15351;52.408;16.826;2022-12-24T13:35:25;100443.19;;;8.50;79.17
26436;BME280;15351;52.408;16.826;2022-12-24T13:37:47;100451.41;;;8.45;79.38
26436;BME280;15351;52.408;16.826;2022-12-24T13:40:25;100457.41;;;8.43;79.48
26436;BME280;15351;52.408;16.826;2022-12-24T13:48:40;100459.42;;;8.41;79.23
26436;BME280;15351;52.408;16.826;2022-12-24T13:51:32;100464.79;;;8.37;79.36
26436;BME280;15351;52.408;16.826;2022-12-24T13:54:03;100456.39;;;8.36;79.44
26436;BME280;15351;52.408;16.826;2022-12-24T13:56:43;100451.52;;;8.36;79.41
26436;BME280;15351;52.408;16.826;2022-12-24T13:59:28;100457.05;;;8.34;79.29
26436;BME280;15351;52.408;16.826;2022-12-24T14:02:21;100468.13;;;8.31;79.41
26436;BME280;15351;52.408;16.826;2022-12-24T14:04:56;100469.81;;;8.32;79.71
26436;BME280;15351;52.408;16.826;2022-12-24T14:07:34;100467.13;;;8.32;79.54
26436;BME280;15351;52.408;16.826;2022-12-24T14:16:35;100470.14;;;8.29;79.73
26436;BME280;15351;52.408;16.826;2022-12-24T14:19:26;100475.20;;;8.36;79.51
26436;BME280;15351;52.408;16.826;2022-12-24T14:22:33;100490.98;;;8.31;79.28
26436;BME280;15351;52.408;16.826;2022-12-24T14:25:21;100493.61;;;8.27;79.43
26436;BME280;15351;52.408;16.826;2022-12-24T14:34:11;100510.80;;;8.34;79.21
26436;BME280;15351;52.408;16.826;2022-12-24T14:36:46;100506.53;;;8.24;79.38
26436;BME280;15351;52.408;16.826;2022-12-24T14:42:46;100515.09;;;8.23;79.44
26436;BME280;15351;52.408;16.826;2022-12-24T14:45:41;100515.94;;;8.24;79.34
26436;BME280;15351;52.408;16.826;2022-12-24T14:54:25;100527.15;;;8.16;79.53
26436;BME280;15351;52.408;16.826;2022-12-24T14:57:26;100532.47;;;8.12;79.40
26436;BME280;15351;52.408;16.826;2022-12-24T15:03:30;100531.61;;;8.07;79.80
26436;BME280;15351;52.408;16.826;2022-12-24T15:06:18;100540.51;;;8.08;79.68
26436;BME280;15351;52.408;16.826;2022-12-24T15:08:54;100547.70;;;8.03;79.60
26436;BME280;15351;52.408;16.826;2022-12-24T15:11:36;100556.89;;;8.01;79.83
26436;BME280;15351;52.408;16.826;2022-12-24T15:14:29;100560.98;;;8.05;79.98
26436;BME280;15351;52.408;16.826;2022-12-24T15:17:03;100561.00;;;8.09;79.86
26436;BME280;15351;52.408;16.826;2022-12-24T15:19:54;100564.92;;;8.14;79.61
26436;BME280;15351;52.408;16.826;2022-12-24T15:22:35;100569.64;;;8.16;79.62
26436;BME280;15351;52.408;16.826;2022-12-24T15:31:16;100576.70;;;8.17;79.37
26436;BME280;15351;52.408;16.826;2022-12-24T15:33:56;100575.45;;;8.12;79.38
26436;BME280;15351;52.408;16.826;2022-12-24T15:36:46;100585.36;;;8.11;79.50
26436;BME280;15351;52.408;16.826;2022-12-24T15:39:18;100584.02;;;8.11;79.60